Time;durP1;ratioP1;P1;durP2;ratioP2;P2;SDS_P1;SDS_P2;PMS_P1;PMS_P2;Temp;Humidity;BMP_temperature;BMP_pressure;BME280_temperature;BME280_humidity;BME280_pressure;Samples;Min_cycle;Max_cycle;Signal;HPM_P1;HPM_P2
2021/11/23 00:02:09;;;;;;;6.17;1.53;;;;;;;3.90;100.00;101936.41;4954066;28;20643;-74
2021/11/23 00:04:35;;;;;;;1.40;1.20;;;;;;;3.93;100.00;101935.16;4953987;28;20646;-74
2021/11/23 00:07:00;;;;;;;1.60;1.27;;;;;;;3.94;100.00;101939.50;4953856;29;20646;-77
2021/11/23 00:09:25;;;;;;;0.40;0.40;;;;;;;3.94;100.00;101937.63;4953585;28;20178;-77
2021/11/23 00:11:50;;;;;;;0.70;0.70;;;;;;;3.94;100.00;101939.50;4953776;28;20516;-78
2021/11/23 00:14:16;;;;;;;1.90;1.80;;;;;;;3.93;100.00;101935.97;4953900;28;20724;-78
2021/11/23 00:16:41;;;;;;;0.77;0.53;;;;;;;3.92;100.00;101933.50;4953711;28;20236;-77
2021/11/23 00:19:07;;;;;;;0.83;0.83;;;;;;;3.94;100.00;101936.81;4953826;28;20175;-77
2021/11/23 00:21:32;;;;;;;1.73;1.63;;;;;;;3.94;100.00;101940.34;4953701;28;20186;-78
2021/11/23 00:23:57;;;;;;;1.53;1.47;;;;;;;3.96;100.00;101934.69;4953570;28;20206;-78
2021/11/23 00:26:23;;;;;;;0.23;0.23;;;;;;;3.96;100.00;101945.50;4953472;28;20179;-76
2021/11/23 00:28:48;;;;;;;0.40;0.40;;;;;;;3.96;100.00;101940.09;4953664;28;20183;-75
2021/11/23 00:31:13;;;;;;;1.30;1.27;;;;;;;3.95;100.00;101943.88;4953822;28;20186;-75
2021/11/23 00:33:42;;;;;;;0.70;0.70;;;;;;;3.94;100.00;101945.75;4953186;28;20245;-74
2021/11/23 00:36:11;;;;;;;1.80;0.53;;;;;;;3.95;100.00;101933.03;4953062;28;20264;-75
2021/11/23 00:38:41;;;;;;;0.40;0.40;;;;;;;3.92;100.00;101939.75;4953473;28;20184;-78
2021/11/23 00:41:09;;;;;;;0.63;0.50;;;;;;;3.89;100.00;101927.50;4953478;28;20171;-78
2021/11/23 00:43:34;;;;;;;3.37;0.87;;;;;;;3.86;100.00;101925.25;4953550;28;20257;-77
2021/11/23 00:45:59;;;;;;;0.47;0.47;;;;;;;3.86;100.00;101924.44;4953306;28;20588;-77
2021/11/23 00:48:25;;;;;;;0.40;0.40;;;;;;;3.84;100.00;101916.56;4953355;28;20729;-77
2021/11/23 00:50:51;;;;;;;1.03;1.03;;;;;;;3.83;100.00;101914.09;4953442;28;20202;-77
2021/11/23 00:53:16;;;;;;;1.00;1.00;;;;;;;3.80;100.00;101915.38;4953284;28;20662;-78
2021/11/23 00:55:42;;;;;;;0.97;0.63;;;;;;;3.76;100.00;101903.38;4953141;28;20235;-77
2021/11/23 00:58:07;;;;;;;0.23;0.23;;;;;;;3.74;100.00;101902.75;4952715;28;20171;-78
2021/11/23 01:00:33;;;;;;;0.10;0.10;;;;;;;3.70;100.00;101887.25;4953367;28;20629;-77
2021/11/23 01:02:59;;;;;;;0.70;0.70;;;;;;;3.68;100.00;101882.06;4953020;28;20205;-77
2021/11/23 01:05:25;;;;;;;0.33;0.33;;;;;;;3.73;100.00;101865.97;4953384;28;20178;-78
2021/11/23 01:07:50;;;;;;;1.47;1.40;;;;;;;3.77;100.00;101869.06;4953240;28;20481;-77
2021/11/23 01:10:16;;;;;;;0.50;0.50;;;;;;;3.75;100.00;101874.66;4964784;28;20185;-78
2021/11/23 01:12:41;;;;;;;0.30;0.30;;;;;;;3.76;100.00;101865.53;4972378;28;20186;-77
2021/11/23 01:15:08;;;;;;;0.10;0.10;;;;;;;3.72;100.00;101853.50;4972343;28;20174;-78
2021/11/23 01:17:34;;;;;;;1.57;1.43;;;;;;;3.67;100.00;101837.19;4972670;28;20186;-77
2021/11/23 01:20:00;;;;;;;1.17;0.57;;;;;;;3.63;100.00;101827.91;4972408;28;20521;-77
2021/11/23 01:22:25;;;;;;;1.43;1.33;;;;;;;3.56;100.00;101821.75;4972412;28;20201;-74
2021/11/23 01:24:51;;;;;;;4.13;1.93;;;;;;;3.50;100.00;101833.50;4970427;28;20190;-78
2021/11/23 01:27:16;;;;;;;0.93;0.63;;;;;;;3.50;100.00;101836.19;4972254;28;20177;-77
2021/11/23 01:29:41;;;;;;;1.60;1.00;;;;;;;3.48;100.00;101838.31;4972537;28;20597;-78
2021/11/23 01:32:07;;;;;;;0.80;0.80;;;;;;;3.44;100.00;101840.63;4972265;28;20198;-77
2021/11/23 01:34:33;;;;;;;1.83;1.73;;;;;;;3.42;100.00;101847.31;4972109;28;20522;-77
2021/11/23 01:36:58;;;;;;;1.63;1.53;;;;;;;3.45;100.00;101849.56;4972174;28;20202;-77
2021/11/23 01:39:24;;;;;;;1.30;1.20;;;;;;;3.37;100.00;101855.28;4972236;28;20173;-77
2021/11/23 01:41:50;;;;;;;0.53;0.20;;;;;;;3.32;100.00;101860.53;4972105;28;20212;-77
2021/11/23 01:44:15;;;;;;;1.43;0.97;;;;;;;3.32;100.00;101865.94;4972364;28;20268;-77
2021/11/23 01:46:41;;;;;;;0.53;0.47;;;;;;;3.30;100.00;101866.16;4971944;28;20225;-77
2021/11/23 01:49:06;;;;;;;1.17;0.97;;;;;;;3.26;100.00;101870.38;4971767;28;20225;-78
2021/11/23 01:51:32;;;;;;;0.93;0.87;;;;;;;3.22;100.00;101867.31;4971994;28;20215;-77
2021/11/23 01:53:57;;;;;;;2.53;2.20;;;;;;;3.21;100.00;101876.47;4971951;28;20185;-77
2021/11/23 01:56:23;;;;;;;1.87;1.77;;;;;;;3.16;100.00;101870.91;4971712;28;20189;-78
2021/11/23 01:58:48;;;;;;;2.23;2.03;;;;;;;3.11;100.00;101867.25;4973370;28;20584;-75
2021/11/23 02:01:15;;;;;;;1.23;1.20;;;;;;;3.05;100.00;101866.28;4972601;28;20657;-77
2021/11/23 02:03:40;;;;;;;2.13;2.03;;;;;;;3.01;100.00;101861.56;4970483;28;20291;-77
2021/11/23 02:06:07;;;;;;;1.93;1.83;;;;;;;2.93;100.00;101854.59;4973822;28;20236;-77
2021/11/23 02:08:33;;;;;;;4.63;2.27;;;;;;;2.87;100.00;101847.38;4974011;28;20540;-77
2021/11/23 02:10:58;;;;;;;5.40;3.77;;;;;;;2.86;100.00;101843.88;4975419;28;20185;-77
2021/11/23 02:13:25;;;;;;;0.57;0.57;;;;;;;2.87;100.00;101853.59;4975389;28;20186;-78
2021/11/23 02:15:51;;;;;;;2.43;2.23;;;;;;;2.87;100.00;101859.00;4973659;28;20630;-77
2021/11/23 02:18:21;;;;;;;0.97;0.97;;;;;;;2.92;100.00;101863.75;4974848;28;20428;-76
2021/11/23 02:20:48;;;;;;;2.07;1.53;;;;;;;2.91;100.00;101857.53;4975046;28;20174;-77
2021/11/23 02:23:14;;;;;;;0.77;0.77;;;;;;;2.91;100.00;101854.81;4975138;28;20569;-77
2021/11/23 02:25:40;;;;;;;0.60;0.60;;;;;;;2.94;100.00;101857.06;4975167;28;20200;-77
2021/11/23 02:28:07;;;;;;;7.73;3.50;;;;;;;2.95;100.00;101863.28;4975195;28;20823;-77
2021/11/23 02:30:42;;;;;;;3.63;3.23;;;;;;;3.01;100.00;101856.16;4974878;28;20273;-77
2021/11/23 02:33:08;;;;;;;3.13;1.57;;;;;;;3.06;100.00;101843.66;4974967;28;20413;-78
2021/11/23 02:35:33;;;;;;;1.60;1.50;;;;;;;3.15;100.00;101844.13;4974810;28;20422;-78
2021/11/23 02:37:59;;;;;;;5.40;1.87;;;;;;;3.19;100.00;101838.06;4974819;28;20213;-77
2021/11/23 02:40:25;;;;;;;2.50;2.30;;;;;;;3.25;100.00;101847.94;4974643;28;20531;-78
2021/11/23 02:42:51;;;;;;;1.90;1.80;;;;;;;3.28;100.00;101843.97;4972964;28;20577;-78
2021/11/23 02:45:20;;;;;;;1.80;1.13;;;;;;;3.32;100.00;101839.75;4974598;28;20173;-78
2021/11/23 02:47:45;;;;;;;2.13;2.03;;;;;;;3.36;100.00;101849.06;4974728;28;20209;-77
2021/11/23 02:50:13;;;;;;;3.87;3.43;;;;;;;3.42;100.00;101852.72;4974897;28;20216;-78
2021/11/23 02:52:42;;;;;;;0.47;0.47;;;;;;;3.45;100.00;101853.06;4974555;28;20190;-78
2021/11/23 02:55:08;;;;;;;1.13;1.03;;;;;;;3.50;100.00;101838.91;4974488;28;20425;-77
2021/11/23 02:57:35;;;;;;;1.77;1.67;;;;;;;3.52;100.00;101843.00;4974752;28;20622;-77
2021/11/23 03:00:09;;;;;;;2.23;2.03;;;;;;;3.55;100.00;101850.66;4974468;28;20780;-74
2021/11/23 03:02:34;;;;;;;4.90;1.53;;;;;;;3.59;100.00;101848.31;4974377;28;20461;-76
2021/11/23 03:05:00;;;;;;;0.87;0.87;;;;;;;3.62;100.00;101842.47;4974263;28;20178;-75
2021/11/23 03:07:26;;;;;;;2.23;2.13;;;;;;;3.64;100.00;101847.63;4974040;28;20193;-75
2021/11/23 03:09:52;;;;;;;0.47;0.47;;;;;;;3.65;100.00;101849.28;4973146;28;20186;-75
2021/11/23 03:12:20;;;;;;;2.47;1.23;;;;;;;3.68;100.00;101852.34;4974157;28;20228;-75
2021/11/23 03:14:46;;;;;;;2.53;2.33;;;;;;;3.70;100.00;101847.53;4974040;28;20181;-75
2021/11/23 03:17:13;;;;;;;3.97;0.73;;;;;;;3.75;100.00;101849.53;4974268;28;20418;-75
2021/11/23 03:19:40;;;;;;;2.53;2.10;;;;;;;3.77;100.00;101845.56;4973789;28;20178;-75
2021/11/23 03:22:06;;;;;;;1.20;1.20;;;;;;;3.79;100.00;101839.91;4973719;28;20189;-75
2021/11/23 03:24:32;;;;;;;0.93;0.63;;;;;;;3.77;100.00;101845.56;4973643;28;20181;-76
2021/11/23 03:26:57;;;;;;;7.30;0.70;;;;;;;3.76;100.00;101841.22;4973655;28;20189;-75
2021/11/23 03:29:22;;;;;;;1.90;1.80;;;;;;;3.77;100.00;101845.56;4973397;28;20224;-75
2021/11/23 03:31:48;;;;;;;1.67;1.57;;;;;;;3.79;100.00;101851.56;4973553;28;20262;-75
2021/11/23 03:34:14;;;;;;;1.90;1.80;;;;;;;3.83;100.00;101854.59;4973647;28;20201;-76
2021/11/23 03:36:41;;;;;;;1.43;1.30;;;;;;;3.85;100.00;101855.19;4973216;28;20178;-76
2021/11/23 03:39:07;;;;;;;1.60;1.53;;;;;;;3.84;100.00;101846.25;4973120;28;20181;-75
2021/11/23 03:41:34;;;;;;;0.80;0.63;;;;;;;3.84;100.00;101843.56;4973162;28;20178;-75
2021/11/23 03:43:59;;;;;;;1.80;1.70;;;;;;;3.84;100.00;101846.25;4973100;28;20216;-75
2021/11/23 03:46:24;;;;;;;2.87;2.70;;;;;;;3.80;100.00;101838.88;4973016;28;20174;-75
2021/11/23 03:48:50;;;;;;;1.73;1.63;;;;;;;3.76;100.00;101837.66;4973007;28;20182;-76
2021/11/23 03:51:15;;;;;;;1.30;1.27;;;;;;;3.75;100.00;101833.31;4973084;28;20212;-75
2021/11/23 03:53:41;;;;;;;1.13;1.03;;;;;;;3.75;100.00;101836.00;4972964;28;20182;-76
2021/11/23 03:56:06;;;;;;;0.53;0.53;;;;;;;3.74;100.00;101835.19;4972462;28;20301;-76
2021/11/23 03:58:32;;;;;;;1.93;1.80;;;;;;;3.80;100.00;101836.16;4968316;28;20190;-76
2021/11/23 04:00:57;;;;;;;5.77;2.10;;;;;;;3.80;100.00;101834.28;4965205;28;20240;-76
2021/11/23 04:03:22;;;;;;;1.30;1.23;;;;;;;3.84;100.00;101837.34;4972801;28;20288;-76
2021/11/23 04:05:48;;;;;;;1.50;1.40;;;;;;;3.81;100.00;101830.50;4972623;28;20244;-76
2021/11/23 04:08:13;;;;;;;1.03;1.03;;;;;;;3.76;100.00;101827.69;4972837;28;20174;-76
2021/11/23 04:10:39;;;;;;;1.47;1.37;;;;;;;3.74;100.00;101826.25;4972993;28;20176;-76
2021/11/23 04:13:04;;;;;;;2.07;1.90;;;;;;;3.70;100.00;101831.31;4972719;28;20200;-75
2021/11/23 04:15:30;;;;;;;1.73;1.63;;;;;;;3.70;100.00;101827.78;4972396;28;20204;-76
2021/11/23 04:17:55;;;;;;;2.13;2.03;;;;;;;3.68;100.00;101830.72;4972588;28;20534;-75
2021/11/23 04:20:21;;;;;;;2.17;2.07;;;;;;;3.65;100.00;101825.78;4972653;28;20310;-76
2021/11/23 04:22:46;;;;;;;0.80;0.80;;;;;;;3.64;100.00;101824.13;4972206;28;20198;-76
2021/11/23 04:25:12;;;;;;;3.30;3.10;;;;;;;3.65;100.00;101814.16;4972320;28;20189;-76
2021/11/23 04:27:38;;;;;;;3.87;2.97;;;;;;;3.64;100.00;101823.31;4972707;28;20181;-76
2021/11/23 04:30:06;;;;;;;0.83;0.83;;;;;;;3.66;100.00;101821.19;4972474;28;20425;-75
2021/11/23 04:32:31;;;;;;;1.87;1.77;;;;;;;3.66;100.00;101823.91;4972375;28;20182;-76
2021/11/23 04:34:57;;;;;;;2.30;2.13;;;;;;;3.65;100.00;101827.66;4972101;28;20240;-76
2021/11/23 04:37:22;;;;;;;4.53;3.63;;;;;;;3.60;100.00;101825.63;4972560;28;20182;-76
2021/11/23 04:39:49;;;;;;;0.77;0.77;;;;;;;3.60;100.00;101822.94;4972460;28;20590;-76
2021/11/23 04:42:15;;;;;;;2.93;2.47;;;;;;;3.61;100.00;101827.28;4972183;28;20200;-76
2021/11/23 04:44:41;;;;;;;7.73;3.40;;;;;;;3.59;100.00;101826.69;4972261;28;20551;-77
2021/11/23 04:47:06;;;;;;;4.77;3.70;;;;;;;3.54;100.00;101824.69;4972224;28;20177;-76
2021/11/23 04:49:32;;;;;;;1.73;1.63;;;;;;;3.52;100.00;101820.56;4972571;28;20581;-79
2021/11/23 04:51:57;;;;;;;1.97;1.80;;;;;;;3.51;100.00;101816.22;4972421;28;20174;-76
2021/11/23 04:54:22;;;;;;;1.20;1.20;;;;;;;3.50;100.00;101825.38;4972120;28;20194;-76
2021/11/23 04:56:48;;;;;;;0.80;0.80;;;;;;;3.48;100.00;101825.63;4971932;28;20196;-75
2021/11/23 04:59:14;;;;;;;1.30;1.30;;;;;;;3.46;100.00;101816.91;4971946;28;20180;-76
2021/11/23 05:01:39;;;;;;;2.10;2.00;;;;;;;3.46;100.00;101819.59;4972014;28;20228;-76
2021/11/23 05:04:04;;;;;;;2.60;2.23;;;;;;;3.43;100.00;101811.97;4969406;28;20746;-76
2021/11/23 05:06:30;;;;;;;2.60;2.40;;;;;;;3.42;100.00;101809.50;4960012;28;20209;-76
2021/11/23 05:08:56;;;;;;;4.80;4.43;;;;;;;3.42;100.00;101798.69;4971468;28;20429;-77
2021/11/23 05:11:24;;;;;;;1.73;1.63;;;;;;;3.40;100.00;101801.63;4971954;28;20660;-75
2021/11/23 05:13:50;;;;;;;0.90;0.90;;;;;;;3.41;100.00;101805.16;4971972;28;20689;-76
2021/11/23 05:16:15;;;;;;;2.23;2.13;;;;;;;3.41;100.00;101792.47;4971761;28;20174;-76
2021/11/23 05:18:40;;;;;;;2.73;2.63;;;;;;;3.44;100.00;101805.50;4971856;28;20197;-76
2021/11/23 05:21:06;;;;;;;2.13;2.03;;;;;;;3.47;100.00;101791.56;4971937;28;20208;-75
2021/11/23 05:23:31;;;;;;;2.37;2.27;;;;;;;3.48;100.00;101797.78;4971818;28;20275;-77
2021/11/23 05:25:58;;;;;;;1.23;1.10;;;;;;;3.51;100.00;101802.72;4971641;28;20176;-75
2021/11/23 05:28:24;;;;;;;3.47;3.20;;;;;;;3.53;100.00;101796.03;4971811;28;20176;-75
2021/11/23 05:30:51;;;;;;;1.90;1.30;;;;;;;3.55;100.00;101810.13;4971794;28;20174;-75
2021/11/23 05:33:16;;;;;;;1.03;1.03;;;;;;;3.56;100.00;101810.94;4972833;28;20182;-76
2021/11/23 05:35:42;;;;;;;5.17;4.67;;;;;;;3.58;100.00;101808.84;4975417;28;20556;-77
2021/11/23 05:38:07;;;;;;;1.70;1.60;;;;;;;3.59;100.00;101802.38;4975538;28;20174;-75
2021/11/23 05:40:33;;;;;;;1.00;0.93;;;;;;;3.59;100.00;101811.28;4975497;28;20181;-76
2021/11/23 05:42:58;;;;;;;2.20;2.00;;;;;;;3.57;100.00;101804.47;4975313;28;20208;-76
2021/11/23 05:45:23;;;;;;;1.17;1.13;;;;;;;3.55;100.00;101796.63;4975206;28;20649;-75
2021/11/23 05:47:49;;;;;;;1.53;1.50;;;;;;;3.58;100.00;101801.53;4975628;28;20537;-76
2021/11/23 05:50:14;;;;;;;1.60;1.50;;;;;;;3.58;100.00;101798.03;4975350;28;20177;-76
2021/11/23 05:52:40;;;;;;;2.13;2.03;;;;;;;3.59;100.00;101800.50;4975183;28;20526;-75
2021/11/23 05:55:06;;;;;;;1.83;1.73;;;;;;;3.63;100.00;101808.16;4975058;28;20229;-75
2021/11/23 05:57:31;;;;;;;2.63;2.43;;;;;;;3.65;100.00;101814.16;4974932;28;20294;-76
2021/11/23 05:59:56;;;;;;;1.47;1.27;;;;;;;3.67;100.00;101803.94;4975001;28;20178;-76
2021/11/23 06:02:22;;;;;;;3.73;3.47;;;;;;;3.70;100.00;101814.28;4969876;28;20205;-76
2021/11/23 06:04:47;;;;;;;0.67;0.67;;;;;;;3.71;100.00;101808.63;4974873;28;20173;-76
2021/11/23 06:07:13;;;;;;;1.27;1.17;;;;;;;3.74;100.00;101807.34;4975261;28;20170;-76
2021/11/23 06:09:38;;;;;;;17.17;2.80;;;;;;;3.74;100.00;101801.94;4974868;28;20181;-75
2021/11/23 06:12:04;;;;;;;4.43;3.33;;;;;;;3.75;100.00;101800.88;4974864;28;20177;-76
2021/11/23 06:14:30;;;;;;;12.00;3.60;;;;;;;3.76;100.00;101797.13;4974804;28;20174;-76
2021/11/23 06:16:56;;;;;;;1.70;1.63;;;;;;;3.75;100.00;101812.50;4974762;28;20530;-76
2021/11/23 06:19:22;;;;;;;2.07;1.93;;;;;;;3.78;100.00;101819.34;4974802;28;20228;-76
2021/11/23 06:21:47;;;;;;;4.10;3.60;;;;;;;3.78;100.00;101819.34;4974765;28;20178;-75
2021/11/23 06:24:13;;;;;;;3.53;2.53;;;;;;;3.76;100.00;101819.59;4974600;28;20673;-76
2021/11/23 06:26:38;;;;;;;1.03;1.03;;;;;;;3.78;100.00;101822.88;4974437;28;20262;-76
2021/11/23 06:29:04;;;;;;;3.07;2.13;;;;;;;3.77;100.00;101818.53;4974594;28;20178;-75
2021/11/23 06:31:30;;;;;;;2.00;1.73;;;;;;;3.77;100.00;101828.53;4974526;28;20182;-75
2021/11/23 06:33:56;;;;;;;0.40;0.40;;;;;;;3.81;100.00;101837.81;4974413;28;20192;-75
2021/11/23 06:36:22;;;;;;;1.23;1.20;;;;;;;3.81;100.00;101841.31;4974416;28;20170;-75
2021/11/23 06:38:50;;;;;;;0.70;0.63;;;;;;;3.83;100.00;101841.91;4971022;28;20194;-76
2021/11/23 06:41:16;;;;;;;1.57;1.47;;;;;;;3.84;100.00;101840.03;4974308;28;20186;-76
2021/11/23 06:43:42;;;;;;;3.17;2.97;;;;;;;3.85;100.00;101844.38;4974252;28;20209;-75
2021/11/23 06:46:07;;;;;;;1.20;1.20;;;;;;;3.86;100.00;101852.25;4974122;28;20284;-76
2021/11/23 06:48:32;;;;;;;0.83;0.83;;;;;;;3.86;100.00;101846.84;4974343;28;20209;-75
2021/11/23 06:50:58;;;;;;;1.27;1.20;;;;;;;3.87;100.00;101853.09;4974213;28;20182;-76
2021/11/23 06:53:23;;;;;;;2.23;2.13;;;;;;;3.87;100.00;101862.00;4974490;28;20579;-75
2021/11/23 06:55:49;;;;;;;2.23;2.07;;;;;;;3.89;100.00;101867.19;4973656;28;20185;-75
2021/11/23 06:58:15;;;;;;;2.83;2.63;;;;;;;3.88;100.00;101869.06;4973310;28;20483;-76
2021/11/23 07:00:42;;;;;;;2.57;2.30;;;;;;;3.91;100.00;101865.09;4973991;28;20523;-76
2021/11/23 07:03:08;;;;;;;0.70;0.70;;;;;;;3.89;100.00;101868.00;4974512;28;20206;-78
2021/11/23 07:05:34;;;;;;;1.97;1.87;;;;;;;3.88;100.00;101871.78;4975473;28;20229;-75
2021/11/23 07:07:59;;;;;;;2.00;1.90;;;;;;;3.89;100.00;101881.53;4974369;28;20171;-78
2021/11/23 07:10:25;;;;;;;2.17;1.90;;;;;;;3.92;100.00;101884.84;4973831;28;20186;-79
2021/11/23 07:12:51;;;;;;;2.47;2.27;;;;;;;3.92;100.00;101874.03;4973767;28;20265;-78
2021/11/23 07:15:17;;;;;;;1.93;1.83;;;;;;;3.91;100.00;101884.03;4973801;28;20181;-76
2021/11/23 07:17:42;;;;;;;3.90;3.63;;;;;;;3.91;100.00;101881.31;4973542;28;20189;-76
2021/11/23 07:20:08;;;;;;;2.73;2.53;;;;;;;3.92;100.00;101896.50;4973827;28;20185;-75
2021/11/23 07:22:33;;;;;;;2.33;2.13;;;;;;;3.91;100.00;101894.84;4973451;28;20232;-75
2021/11/23 07:24:58;;;;;;;7.07;1.87;;;;;;;3.92;100.00;101887.56;4973489;28;20268;-76
2021/11/23 07:27:24;;;;;;;2.43;2.27;;;;;;;3.91;100.00;101905.66;4973848;28;20517;-77
2021/11/23 07:29:49;;;;;;;2.70;1.80;;;;;;;3.93;100.00;101897.31;4973751;28;20652;-76
2021/11/23 07:32:15;;;;;;;1.63;1.53;;;;;;;3.94;100.00;101897.06;4972098;28;20217;-76
2021/11/23 07:34:41;;;;;;;4.77;4.37;;;;;;;3.94;100.00;101899.78;4973588;28;20190;-75
2021/11/23 07:37:07;;;;;;;0.53;0.53;;;;;;;3.95;100.00;101911.41;4973749;28;20180;-77
2021/11/23 07:39:32;;;;;;;4.83;4.53;;;;;;;3.95;100.00;101916.81;4973280;28;20257;-77
2021/11/23 07:41:58;;;;;;;2.23;2.13;;;;;;;3.94;100.00;101904.38;4973247;28;20174;-77
2021/11/23 07:44:23;;;;;;;3.83;3.53;;;;;;;3.95;100.00;101906.84;4972990;28;20201;-76
2021/11/23 07:46:49;;;;;;;5.43;4.97;;;;;;;3.98;100.00;101911.78;4973255;28;20228;-76
2021/11/23 07:49:14;;;;;;;1.67;1.57;;;;;;;4.00;100.00;101908.84;4973046;28;20178;-77
2021/11/23 07:51:40;;;;;;;1.97;1.87;;;;;;;4.04;100.00;101912.72;4973036;28;20173;-78
2021/11/23 07:54:06;;;;;;;3.30;3.00;;;;;;;4.04;100.00;101918.13;4972963;28;20179;-77
2021/11/23 07:56:31;;;;;;;1.40;1.40;;;;;;;4.07;100.00;101925.78;4972179;28;20646;-77
2021/11/23 07:58:57;;;;;;;1.13;1.13;;;;;;;4.09;100.00;101912.88;4972720;28;20176;-78
2021/11/23 08:01:22;;;;;;;2.07;2.00;;;;;;;4.11;100.00;101921.56;4972912;28;20531;-77
2021/11/23 08:03:48;;;;;;;1.47;1.37;;;;;;;4.15;100.00;101934.38;4972788;28;20200;-77
2021/11/23 08:06:13;;;;;;;1.27;1.23;;;;;;;4.14;100.00;101931.91;4972569;28;20189;-77
2021/11/23 08:08:39;;;;;;;1.90;1.80;;;;;;;4.17;100.00;101932.25;4972907;28;20176;-78
2021/11/23 08:11:06;;;;;;;3.60;2.40;;;;;;;4.21;100.00;101934.53;4972680;28;20563;-77
2021/11/23 08:13:32;;;;;;;4.33;4.03;;;;;;;4.21;100.00;101935.34;4972694;28;20166;-77
2021/11/23 08:16:03;;;;;;;1.97;1.87;;;;;;;4.22;100.00;101941.59;4956375;28;20174;-76
2021/11/23 08:18:28;;;;;;;1.90;1.80;;;;;;;4.21;100.00;101942.66;4953571;28;20501;-77
2021/11/23 08:20:54;;;;;;;1.40;1.33;;;;;;;4.26;100.00;101950.88;4953255;28;20186;-77
2021/11/23 08:23:19;;;;;;;2.07;1.83;;;;;;;4.27;100.00;101947.13;4953206;28;20467;-77
2021/11/23 08:25:46;;;;;;;3.83;1.50;;;;;;;4.28;100.00;101943.34;4953104;28;20178;-76
2021/11/23 08:28:12;;;;;;;2.90;2.70;;;;;;;4.25;100.00;101941.94;4953243;28;20173;-77
2021/11/23 08:30:37;;;;;;;1.23;1.23;;;;;;;4.29;100.00;101943.13;4953201;28;20541;-77
2021/11/23 08:33:03;;;;;;;2.63;1.23;;;;;;;4.29;100.00;101945.00;4953108;28;20175;-76
2021/11/23 08:35:28;;;;;;;5.03;4.73;;;;;;;4.31;100.00;101949.13;4952872;28;20170;-76
2021/11/23 08:37:54;;;;;;;2.57;2.37;;;;;;;4.32;100.00;101952.66;4952938;28;20174;-79
2021/11/23 08:40:19;;;;;;;3.53;3.23;;;;;;;4.32;100.00;101947.22;4952909;28;20182;-80
2021/11/23 08:42:45;;;;;;;1.77;1.70;;;;;;;4.33;100.00;101944.28;4952865;28;20202;-75
2021/11/23 08:45:11;;;;;;;1.90;1.80;;;;;;;4.38;100.00;101954.44;4952708;28;20185;-76
2021/11/23 08:47:37;;;;;;;2.97;2.40;;;;;;;4.40;100.00;101958.56;4952686;28;20646;-76
2021/11/23 08:50:05;;;;;;;2.80;2.60;;;;;;;4.47;100.00;101958.44;4952672;28;20174;-76
2021/11/23 08:52:31;;;;;;;2.50;2.40;;;;;;;4.49;100.00;101959.03;4952424;28;20201;-76
2021/11/23 08:54:56;;;;;;;3.27;2.73;;;;;;;4.48;100.00;101960.94;4952087;28;20261;-76
2021/11/23 08:57:22;;;;;;;3.53;2.60;;;;;;;4.49;100.00;101956.34;4952461;28;20584;-77
2021/11/23 08:59:49;;;;;;;4.60;2.87;;;;;;;4.53;100.00;101951.28;4952506;28;20171;-76
2021/11/23 09:02:15;;;;;;;4.30;3.90;;;;;;;4.56;100.00;101954.34;4952332;28;20203;-77
2021/11/23 09:04:41;;;;;;;6.77;5.37;;;;;;;4.63;100.00;101965.03;4952009;28;20225;-77
2021/11/23 09:07:09;;;;;;;5.47;4.97;;;;;;;4.65;100.00;101957.53;4952322;28;20174;-76
2021/11/23 09:09:41;;;;;;;1.47;1.37;;;;;;;4.72;100.00;101977.19;4955301;29;20177;-76
2021/11/23 09:12:07;;;;;;;4.80;3.67;;;;;;;4.72;100.00;101974.47;4956230;28;20182;-77
2021/11/23 09:14:35;;;;;;;3.37;2.40;;;;;;;4.71;100.00;101968.22;4956015;28;20182;-77
2021/11/23 09:17:03;;;;;;;3.00;2.80;;;;;;;4.74;100.00;101969.63;4956192;28;20321;-76
2021/11/23 09:19:29;;;;;;;8.73;4.63;;;;;;;4.75;100.00;101972.09;4956312;28;20178;-77
2021/11/23 09:21:54;;;;;;;3.73;2.20;;;;;;;4.77;100.00;101967.31;4956201;28;20536;-76
2021/11/23 09:24:22;;;;;;;2.23;2.13;;;;;;;4.82;100.00;101968.47;4955938;28;20237;-76
2021/11/23 09:26:47;;;;;;;1.53;1.43;;;;;;;4.83;100.00;101975.53;4955674;28;20626;-76
2021/11/23 09:29:14;;;;;;;2.13;1.97;;;;;;;4.85;100.00;101981.53;4956172;28;20190;-76
2021/11/23 09:31:41;;;;;;;8.13;3.57;;;;;;;4.86;100.00;101986.72;4956058;28;20189;-77
2021/11/23 09:34:06;;;;;;;1.10;1.10;;;;;;;4.84;100.00;101986.13;4955822;28;20697;-76
2021/11/23 09:36:32;;;;;;;2.07;1.93;;;;;;;4.85;100.00;101970.72;4955583;28;20178;-77
2021/11/23 09:38:58;;;;;;;3.47;3.17;;;;;;;4.89;100.00;101982.72;4955948;28;20174;-77
2021/11/23 09:41:24;;;;;;;6.13;1.83;;;;;;;4.88;100.00;101989.19;4955627;28;20173;-77
2021/11/23 09:43:49;;;;;;;5.60;2.00;;;;;;;4.88;100.00;101981.88;4955595;28;20296;-76
2021/11/23 09:46:14;;;;;;;1.87;1.77;;;;;;;4.92;100.00;101999.34;4955426;28;20453;-76
2021/11/23 09:48:45;;;;;;;3.87;3.50;;;;;;;4.92;100.00;101991.22;4955622;28;20182;-76
2021/11/23 09:51:17;;;;;;;7.53;5.43;;;;;;;4.95;100.00;101989.91;4955483;28;20175;-76
2021/11/23 09:53:42;;;;;;;3.67;1.70;;;;;;;4.92;100.00;101995.78;4955947;28;20175;-76
2021/11/23 09:56:08;;;;;;;5.13;4.67;;;;;;;4.93;100.00;102000.16;4955001;28;20187;-76
2021/11/23 09:58:33;;;;;;;2.43;2.23;;;;;;;4.95;100.00;101996.16;4955293;28;20175;-77
2021/11/23 10:01:04;;;;;;;3.77;3.47;;;;;;;4.96;100.00;101984.25;4955371;28;20179;-76
2021/11/23 10:03:32;;;;;;;2.50;2.30;;;;;;;4.99;100.00;101985.66;4955291;28;20211;-77
2021/11/23 10:06:05;;;;;;;2.23;1.90;;;;;;;4.97;100.00;101987.78;4954874;28;20217;-76
2021/11/23 10:08:30;;;;;;;3.03;2.63;;;;;;;4.98;100.00;101982.13;4955326;28;20171;-76
2021/11/23 10:10:56;;;;;;;1.23;1.13;;;;;;;4.99;100.00;101978.34;4955263;28;20549;-76
2021/11/23 10:13:37;;;;;;;2.50;2.20;;;;;;;5.01;100.00;101978.94;4953922;28;20225;-76
2021/11/23 10:16:02;;;;;;;4.30;3.90;;;;;;;5.04;100.00;101980.34;4955071;28;20245;-76
2021/11/23 10:18:28;;;;;;;6.37;5.33;;;;;;;5.12;100.00;101974.59;4954906;28;20666;-76
2021/11/23 10:20:55;;;;;;;5.07;3.73;;;;;;;5.13;100.00;101975.41;4954889;28;20207;-76
2021/11/23 10:23:27;;;;;;;6.37;5.67;;;;;;;5.09;100.00;101972.34;4954832;28;20205;-76
2021/11/23 10:26:00;;;;;;;14.80;3.10;;;;;;;5.07;100.00;101980.72;4954657;28;20649;-76
2021/11/23 10:28:30;;;;;;;3.20;2.07;;;;;;;5.01;100.00;101976.22;4954952;28;20602;-76
2021/11/23 10:30:58;;;;;;;2.90;2.27;;;;;;;5.01;100.00;101970.00;4954820;28;20181;-78
2021/11/23 10:33:23;;;;;;;2.27;1.53;;;;;;;5.03;100.00;101959.75;4954762;28;20233;-76
2021/11/23 10:35:52;;;;;;;6.30;4.90;;;;;;;5.09;100.00;101964.22;4954830;28;20575;-76
2021/11/23 10:38:19;;;;;;;5.90;4.67;;;;;;;5.11;100.00;101961.28;4954725;28;20175;-76
2021/11/23 10:40:47;;;;;;;4.60;4.03;;;;;;;5.14;100.00;101963.50;4953420;28;20549;-76
2021/11/23 10:43:15;;;;;;;4.10;3.73;;;;;;;5.17;100.00;101960.31;4954603;28;20217;-76
2021/11/23 10:45:47;;;;;;;4.80;4.33;;;;;;;5.20;100.00;101963.38;4954216;28;20179;-76
2021/11/23 10:48:14;;;;;;;5.43;4.40;;;;;;;5.27;100.00;101963.25;4953535;28;20531;-76
2021/11/23 10:50:54;;;;;;;3.47;2.53;;;;;;;5.31;100.00;101967.94;4954732;28;20265;-77
2021/11/23 10:53:22;;;;;;;1.30;1.27;;;;;;;5.32;100.00;101956.03;4954503;28;20257;-76
2021/11/23 10:55:48;;;;;;;2.83;2.17;;;;;;;5.35;100.00;101954.72;4953947;28;20190;-76
2021/11/23 10:58:13;;;;;;;2.17;1.40;;;;;;;5.38;100.00;101957.00;4954214;28;20229;-78
2021/11/23 11:00:42;;;;;;;1.53;1.43;;;;;;;5.36;100.00;101957.22;4954410;28;20244;-76
2021/11/23 11:03:09;;;;;;;4.57;3.27;;;;;;;5.40;100.00;101956.75;4954165;28;20565;-76
2021/11/23 11:05:37;;;;;;;5.13;4.50;;;;;;;5.42;100.00;101951.91;4952775;28;20179;-76
2021/11/23 11:08:03;;;;;;;1.13;1.10;;;;;;;5.43;100.00;101943.53;4954071;28;20183;-76
2021/11/23 11:10:30;;;;;;;5.37;4.50;;;;;;;5.37;100.00;101937.19;4954141;28;20269;-76
2021/11/23 11:12:58;;;;;;;1.03;1.03;;;;;;;5.44;100.00;101936.22;4954310;28;20185;-76
2021/11/23 11:15:32;;;;;;;2.40;2.23;;;;;;;5.47;100.00;101935.75;4953784;28;20303;-76
2021/11/23 11:18:01;;;;;;;3.07;2.80;;;;;;;5.44;100.00;101941.66;4954051;28;20177;-76
2021/11/23 11:20:44;;;;;;;4.43;3.80;;;;;;;5.48;100.00;101943.63;4953913;28;20182;-76